sensor_id;sensor_type;location;lat;lon;timestamp;pressure;altitude;pressure_sealevel;temperature;humidity
70411;BME280;57832;46.038;11.398;2023-04-29T00:01:07;96830.63;;;8.68;100.00
70411;BME280;57832;46.038;11.398;2023-04-29T00:03:33;96834.38;;;8.60;100.00
70411;BME280;57832;46.038;11.398;2023-04-29T00:05:59;96819.91;;;8.69;100.00
70411;BME280;57832;46.038;11.398;2023-04-29T00:08:25;96814.13;;;8.67;100.00
70411;BME280;57832;46.038;11.398;2023-04-29T00:10:50;96811.63;;;8.61;100.00
70411;BME280;57832;46.038;11.398;2023-04-29T00:13:16;96810.22;;;8.29;100.00
70411;BME280;57832;46.038;11.398;2023-04-29T00:15:42;96818.59;;;8.31;100.00
70411;BME280;57832;46.038;11.398;2023-04-29T00:18:09;96830.06;;;8.54;100.00
70411;BME280;57832;46.038;11.398;2023-04-29T00:20:35;96826.31;;;8.38;100.00
70411;BME280;57832;46.038;11.398;2023-04-29T00:23:02;96825.31;;;8.51;100.00
70411;BME280;57832;46.038;11.398;2023-04-29T00:25:28;96819.28;;;8.39;100.00
70411;BME280;57832;46.038;11.398;2023-04-29T00:27:53;96826.56;;;8.25;100.00
70411;BME280;57832;46.038;11.398;2023-04-29T00:30:19;96832.03;;;8.35;100.00
70411;BME280;57832;46.038;11.398;2023-04-29T00:32:44;96830.19;;;8.24;100.00
70411;BME280;57832;46.038;11.398;2023-04-29T00:35:11;96838.84;;;8.36;100.00
70411;BME280;57832;46.038;11.398;2023-04-29T00:37:36;96842.81;;;8.39;100.00
70411;BME280;57832;46.038;11.398;2023-04-29T00:40:02;96836.00;;;8.37;100.00
70411;BME280;57832;46.038;11.398;2023-04-29T00:42:30;96833.03;;;8.58;100.00
70411;BME280;57832;46.038;11.398;2023-04-29T00:44:58;96835.50;;;8.64;100.00
70411;BME280;57832;46.038;11.398;2023-04-29T00:47:23;96831.31;;;8.51;100.00
70411;BME280;57832;46.038;11.398;2023-04-29T00:49:49;96814.28;;;8.49;100.00
70411;BME280;57832;46.038;11.398;2023-04-29T00:52:15;96818.81;;;8.53;100.00
70411;BME280;57832;46.038;11.398;2023-04-29T00:54:41;96816.69;;;8.39;100.00
70411;BME280;57832;46.038;11.398;2023-04-29T00:57:08;96813.44;;;8.72;100.00
70411;BME280;57832;46.038;11.398;2023-04-29T00:59:34;96811.91;;;8.88;100.00
70411;BME280;57832;46.038;11.398;2023-04-29T01:02:01;96806.72;;;8.76;100.00
70411;BME280;57832;46.038;11.398;2023-04-29T01:04:28;96817.56;;;8.44;100.00
70411;BME280;57832;46.038;11.398;2023-04-29T01:10:03;96815.31;;;8.48;100.00
70411;BME280;57832;46.038;11.398;2023-04-29T01:12:45;96813.84;;;8.52;100.00
70411;BME280;57832;46.038;11.398;2023-04-29T01:18:35;96807.06;;;8.97;100.00
70411;BME280;57832;46.038;11.398;2023-04-29T01:21:02;96798.31;;;8.62;100.00
70411;BME280;57832;46.038;11.398;2023-04-29T01:23:28;96810.50;;;8.57;100.00
70411;BME280;57832;46.038;11.398;2023-04-29T01:25:54;96818.81;;;8.42;100.00
70411;BME280;57832;46.038;11.398;2023-04-29T01:30:59;96820.31;;;8.49;100.00
70411;BME280;57832;46.038;11.398;2023-04-29T01:39:40;96790.81;;;8.66;100.00
70411;BME280;57832;46.038;11.398;2023-04-29T01:42:09;96781.44;;;8.53;100.00
70411;BME280;57832;46.038;11.398;2023-04-29T01:44:40;96774.75;;;8.45;100.00
70411;BME280;57832;46.038;11.398;2023-04-29T01:47:09;96767.66;;;8.58;100.00
70411;BME280;57832;46.038;11.398;2023-04-29T01:49:37;96764.34;;;8.62;100.00
70411;BME280;57832;46.038;11.398;2023-04-29T01:52:04;96750.44;;;8.74;100.00
70411;BME280;57832;46.038;11.398;2023-04-29T01:54:30;96746.03;;;8.62;100.00
70411;BME280;57832;46.038;11.398;2023-04-29T01:56:56;96754.63;;;8.75;100.00
70411;BME280;57832;46.038;11.398;2023-04-29T01:59:22;96755.38;;;8.58;100.00
70411;BME280;57832;46.038;11.398;2023-04-29T02:01:48;96762.91;;;8.55;100.00
70411;BME280;57832;46.038;11.398;2023-04-29T02:04:13;96775.16;;;8.54;100.00
70411;BME280;57832;46.038;11.398;2023-04-29T02:06:39;96775.84;;;8.61;100.00
70411;BME280;57832;46.038;11.398;2023-04-29T02:09:05;96785.94;;;8.69;100.00
70411;BME280;57832;46.038;11.398;2023-04-29T02:11:30;96783.25;;;8.81;100.00
70411;BME280;57832;46.038;11.398;2023-04-29T02:13:56;96778.53;;;8.95;100.00
70411;BME280;57832;46.038;11.398;2023-04-29T02:16:22;96779.28;;;8.79;100.00
70411;BME280;57832;46.038;11.398;2023-04-29T02:18:48;96781.44;;;8.82;100.00
70411;BME280;57832;46.038;11.398;2023-04-29T02:21:13;96787.41;;;8.94;100.00
70411;BME280;57832;46.038;11.398;2023-04-29T02:23:40;96789.31;;;8.70;100.00
70411;BME280;57832;46.038;11.398;2023-04-29T02:26:05;96785.00;;;8.76;100.00
70411;BME280;57832;46.038;11.398;2023-04-29T02:28:32;96781.19;;;8.83;100.00
70411;BME280;57832;46.038;11.398;2023-04-29T02:30:59;96789.41;;;8.75;100.00
70411;BME280;57832;46.038;11.398;2023-04-29T02:33:24;96782.19;;;8.65;100.00
70411;BME280;57832;46.038;11.398;2023-04-29T02:35:50;96782.72;;;8.67;100.00
70411;BME280;57832;46.038;11.398;2023-04-29T02:38:15;96772.94;;;8.75;100.00
70411;BME280;57832;46.038;11.398;2023-04-29T02:40:44;96780.41;;;8.83;100.00
70411;BME280;57832;46.038;11.398;2023-04-29T02:43:10;96771.84;;;8.87;100.00
70411;BME280;57832;46.038;11.398;2023-04-29T02:45:36;96750.78;;;8.94;100.00
70411;BME280;57832;46.038;11.398;2023-04-29T02:48:03;96729.00;;;9.06;100.00
70411;BME280;57832;46.038;11.398;2023-04-29T02:50:29;96718.28;;;8.90;100.00
70411;BME280;57832;46.038;11.398;2023-04-29T02:52:54;96710.28;;;8.80;100.00
70411;BME280;57832;46.038;11.398;2023-04-29T02:55:20;96709.63;;;8.73;100.00
70411;BME280;57832;46.038;11.398;2023-04-29T02:57:46;96704.00;;;8.98;100.00
70411;BME280;57832;46.038;11.398;2023-04-29T03:00:11;96691.97;;;9.14;100.00
70411;BME280;57832;46.038;11.398;2023-04-29T03:02:37;96690.38;;;9.13;100.00
70411;BME280;57832;46.038;11.398;2023-04-29T03:05:03;96702.28;;;9.20;100.00
70411;BME280;57832;46.038;11.398;2023-04-29T03:07:30;96706.09;;;8.96;100.00
70411;BME280;57832;46.038;11.398;2023-04-29T03:09:55;96717.44;;;9.01;100.00
70411;BME280;57832;46.038;11.398;2023-04-29T03:12:22;96721.78;;;9.13;100.00
70411;BME280;57832;46.038;11.398;2023-04-29T03:14:47;96728.97;;;8.89;100.00
70411;BME280;57832;46.038;11.398;2023-04-29T03:17:13;96740.94;;;8.84;100.00
70411;BME280;57832;46.038;11.398;2023-04-29T03:19:39;96741.81;;;8.73;100.00
70411;BME280;57832;46.038;11.398;2023-04-29T03:22:05;96750.78;;;8.94;100.00
70411;BME280;57832;46.038;11.398;2023-04-29T03:24:32;96745.72;;;9.04;100.00
70411;BME280;57832;46.038;11.398;2023-04-29T03:26:58;96743.81;;;9.17;100.00
70411;BME280;57832;46.038;11.398;2023-04-29T03:29:24;96737.09;;;9.21;100.00
70411;BME280;57832;46.038;11.398;2023-04-29T03:31:52;96731.16;;;9.26;100.00
70411;BME280;57832;46.038;11.398;2023-04-29T03:34:18;96736.88;;;9.23;100.00
70411;BME280;57832;46.038;11.398;2023-04-29T03:36:43;96732.19;;;9.08;100.00
70411;BME280;57832;46.038;11.398;2023-04-29T03:39:09;96726.41;;;9.23;100.00
70411;BME280;57832;46.038;11.398;2023-04-29T03:41:36;96731.38;;;9.24;100.00
70411;BME280;57832;46.038;11.398;2023-04-29T03:44:01;96729.72;;;9.35;100.00
70411;BME280;57832;46.038;11.398;2023-04-29T03:46:27;96726.78;;;9.31;100.00
70411;BME280;57832;46.038;11.398;2023-04-29T03:48:52;96728.84;;;9.46;100.00
70411;BME280;57832;46.038;11.398;2023-04-29T03:51:24;96745.19;;;9.36;100.00
70411;BME280;57832;46.038;11.398;2023-04-29T03:53:49;96742.63;;;9.42;100.00
70411;BME280;57832;46.038;11.398;2023-04-29T03:56:16;96735.84;;;9.24;100.00
70411;BME280;57832;46.038;11.398;2023-04-29T03:58:41;96739.94;;;9.02;100.00
70411;BME280;57832;46.038;11.398;2023-04-29T04:01:07;96733.34;;;9.17;100.00
70411;BME280;57832;46.038;11.398;2023-04-29T04:03:32;96727.00;;;9.13;100.00
70411;BME280;57832;46.038;11.398;2023-04-29T04:05:58;96720.50;;;9.32;100.00
70411;BME280;57832;46.038;11.398;2023-04-29T04:08:24;96726.78;;;9.31;100.00
70411;BME280;57832;46.038;11.398;2023-04-29T04:10:49;96730.97;;;9.15;100.00
70411;BME280;57832;46.038;11.398;2023-04-29T04:13:15;96737.50;;;9.30;100.00
70411;BME280;57832;46.038;11.398;2023-04-29T04:15:40;96742.88;;;9.06;100.00
70411;BME280;57832;46.038;11.398;2023-04-29T04:18:07;96740.09;;;9.13;100.00
70411;BME280;57832;46.038;11.398;2023-04-29T04:20:35;96744.16;;;9.20;100.00
70411;BME280;57832;46.038;11.398;2023-04-29T04:23:01;96747.56;;;9.21;100.00
70411;BME280;57832;46.038;11.398;2023-04-29T04:25:26;96742.63;;;9.25;100.00
70411;BME280;57832;46.038;11.398;2023-04-29T04:27:52;96740.56;;;9.10;100.00
70411;BME280;57832;46.038;11.398;2023-04-29T04:30:18;96741.28;;;9.22;100.00
70411;BME280;57832;46.038;11.398;2023-04-29T04:32:44;96740.44;;;9.33;100.00
70411;BME280;57832;46.038;11.398;2023-04-29T04:35:10;96737.97;;;9.44;100.00
70411;BME280;57832;46.038;11.398;2023-04-29T04:37:36;96742.41;;;9.26;100.00
70411;BME280;57832;46.038;11.398;2023-04-29T04:40:02;96744.16;;;9.37;100.00
70411;BME280;57832;46.038;11.398;2023-04-29T04:42:27;96748.03;;;9.52;100.00
70411;BME280;57832;46.038;11.398;2023-04-29T04:44:53;96746.03;;;9.59;100.00
70411;BME280;57832;46.038;11.398;2023-04-29T04:47:19;96753.34;;;9.23;100.00
70411;BME280;57832;46.038;11.398;2023-04-29T04:49:44;96768.75;;;9.36;100.00
70411;BME280;57832;46.038;11.398;2023-04-29T04:52:10;96767.06;;;9.47;100.00
70411;BME280;57832;46.038;11.398;2023-04-29T04:54:36;96773.28;;;9.41;100.00
70411;BME280;57832;46.038;11.398;2023-04-29T04:57:02;96768.41;;;9.33;100.00
70411;BME280;57832;46.038;11.398;2023-04-29T04:59:30;96775.66;;;9.43;100.00
70411;BME280;57832;46.038;11.398;2023-04-29T05:01:56;96773.56;;;9.62;100.00
70411;BME280;57832;46.038;11.398;2023-04-29T05:04:21;96773.72;;;9.72;100.00
70411;BME280;57832;46.038;11.398;2023-04-29T05:06:47;96775.59;;;9.77;100.00
70411;BME280;57832;46.038;11.398;2023-04-29T05:09:12;96787.06;;;9.53;100.00
70411;BME280;57832;46.038;11.398;2023-04-29T05:11:38;96784.28;;;9.60;100.00
70411;BME280;57832;46.038;11.398;2023-04-29T05:14:03;96784.88;;;9.84;100.00
70411;BME280;57832;46.038;11.398;2023-04-29T05:16:29;96776.22;;;10.01;100.00
70411;BME280;57832;46.038;11.398;2023-04-29T05:18:55;96765.75;;;10.23;100.00
70411;BME280;57832;46.038;11.398;2023-04-29T05:21:20;96767.31;;;10.24;100.00
70411;BME280;57832;46.038;11.398;2023-04-29T05:23:46;96764.47;;;10.26;100.00
70411;BME280;57832;46.038;11.398;2023-04-29T05:26:11;96761.00;;;10.42;100.00
70411;BME280;57832;46.038;11.398;2023-04-29T05:28:37;96764.13;;;10.39;100.00
70411;BME280;57832;46.038;11.398;2023-04-29T05:31:02;96777.06;;;10.29;100.00
70411;BME280;57832;46.038;11.398;2023-04-29T05:33:28;96771.41;;;10.15;100.00
70411;BME280;57832;46.038;11.398;2023-04-29T05:35:53;96766.78;;;10.00;100.00
70411;BME280;57832;46.038;11.398;2023-04-29T05:38:19;96760.59;;;10.11;100.00
70411;BME280;57832;46.038;11.398;2023-04-29T05:40:44;96756.25;;;10.39;100.00
70411;BME280;57832;46.038;11.398;2023-04-29T05:43:10;96753.97;;;10.70;100.00
70411;BME280;57832;46.038;11.398;2023-04-29T05:45:35;96759.16;;;10.65;100.00
70411;BME280;57832;46.038;11.398;2023-04-29T05:48:01;96758.31;;;10.59;100.00
70411;BME280;57832;46.038;11.398;2023-04-29T05:50:26;96768.28;;;10.57;100.00
70411;BME280;57832;46.038;11.398;2023-04-29T05:52:52;96776.38;;;10.56;100.00
70411;BME280;57832;46.038;11.398;2023-04-29T05:55:19;96787.84;;;10.49;100.00
70411;BME280;57832;46.038;11.398;2023-04-29T05:57:44;96779.72;;;10.51;100.00
70411;BME280;57832;46.038;11.398;2023-04-29T06:00:10;96788.66;;;11.04;100.00
70411;BME280;57832;46.038;11.398;2023-04-29T06:02:36;96782.72;;;10.87;100.00
70411;BME280;57832;46.038;11.398;2023-04-29T06:05:04;96791.09;;;11.11;100.00
70411;BME280;57832;46.038;11.398;2023-04-29T06:07:30;96785.69;;;11.23;100.00
70411;BME280;57832;46.038;11.398;2023-04-29T06:09:55;96784.75;;;11.07;100.00
70411;BME280;57832;46.038;11.398;2023-04-29T06:12:21;96782.94;;;10.80;100.00
70411;BME280;57832;46.038;11.398;2023-04-29T06:14:46;96778.13;;;10.72;100.00
70411;BME280;57832;46.038;11.398;2023-04-29T06:17:12;96775.94;;;10.91;100.00
70411;BME280;57832;46.038;11.398;2023-04-29T06:19:37;96773.69;;;11.00;100.00
70411;BME280;57832;46.038;11.398;2023-04-29T06:22:03;96766.78;;;11.26;100.00
70411;BME280;57832;46.038;11.398;2023-04-29T06:24:29;96769.97;;;11.28;100.00
70411;BME280;57832;46.038;11.398;2023-04-29T06:26:54;96766.47;;;11.17;100.00
70411;BME280;57832;46.038;11.398;2023-04-29T06:29:20;96769.25;;;11.38;100.00
70411;BME280;57832;46.038;11.398;2023-04-29T06:31:45;96770.31;;;11.37;100.00
70411;BME280;57832;46.038;11.398;2023-04-29T06:34:11;96770.13;;;11.49;100.00
70411;BME280;57832;46.038;11.398;2023-04-29T06:36:37;96773.22;;;11.41;100.00
70411;BME280;57832;46.038;11.398;2023-04-29T06:39:03;96760.41;;;11.49;100.00
70411;BME280;57832;46.038;11.398;2023-04-29T06:41:28;96756.88;;;11.71;100.00
70411;BME280;57832;46.038;11.398;2023-04-29T06:43:54;96754.34;;;11.86;100.00
70411;BME280;57832;46.038;11.398;2023-04-29T06:46:20;96754.50;;;11.69;100.00
70411;BME280;57832;46.038;11.398;2023-04-29T06:48:45;96755.88;;;11.77;100.00
70411;BME280;57832;46.038;11.398;2023-04-29T06:51:11;96743.25;;;11.79;100.00
70411;BME280;57832;46.038;11.398;2023-04-29T06:53:37;96754.84;;;11.83;100.00
70411;BME280;57832;46.038;11.398;2023-04-29T06:56:02;96755.88;;;11.77;100.00
70411;BME280;57832;46.038;11.398;2023-04-29T06:58:28;96771.06;;;12.13;100.00
70411;BME280;57832;46.038;11.398;2023-04-29T07:00:53;96754.84;;;12.36;100.00
70411;BME280;57832;46.038;11.398;2023-04-29T07:03:19;96744.44;;;12.73;100.00
70411;BME280;57832;46.038;11.398;2023-04-29T07:05:45;96744.94;;;12.64;100.00
70411;BME280;57832;46.038;11.398;2023-04-29T07:08:12;96753.97;;;13.04;100.00
70411;BME280;57832;46.038;11.398;2023-04-29T07:10:37;96747.69;;;13.52;100.00
70411;BME280;57832;46.038;11.398;2023-04-29T07:13:03;96740.31;;;13.44;100.00
70411;BME280;57832;46.038;11.398;2023-04-29T07:15:33;96741.34;;;13.17;100.00
70411;BME280;57832;46.038;11.398;2023-04-29T07:17:59;96747.91;;;12.99;100.00
70411;BME280;57832;46.038;11.398;2023-04-29T07:20:25;96744.72;;;12.97;100.00
70411;BME280;57832;46.038;11.398;2023-04-29T07:22:51;96736.59;;;13.09;100.00
70411;BME280;57832;46.038;11.398;2023-04-29T07:25:17;96736.34;;;13.10;100.00
